Time;durP1;ratioP1;P1;durP2;ratioP2;P2;SDS_P1;SDS_P2;PMS_P1;PMS_P2;Temp;Humidity;BMP_temperature;BMP_pressure;BME280_temperature;BME280_humidity;BME280_pressure;Samples;Min_cycle;Max_cycle;Signal;HPM_P1;HPM_P2
2022/10/17 00:01:39;;;;;;;2.90;2.70;;;15.20;99.90;;;;;;6167713;23;21045;-81
2022/10/17 00:04:06;;;;;;;3.97;3.73;;;15.20;99.90;;;;;;6168707;23;20419;-82
2022/10/17 00:06:33;;;;;;;3.60;2.87;;;15.10;99.90;;;;;;6169110;23;20421;-81
2022/10/17 00:08:59;;;;;;;2.67;2.47;;;15.10;99.90;;;;;;6170168;23;20480;-82
2022/10/17 00:11:27;;;;;;;2.70;2.50;;;15.10;99.90;;;;;;6168612;23;20539;-82
2022/10/17 00:13:55;;;;;;;4.83;3.73;;;15.00;99.90;;;;;;6168103;23;20413;-82
2022/10/17 00:16:24;;;;;;;3.50;3.20;;;15.00;99.90;;;;;;6168619;23;20421;-82
2022/10/17 00:18:53;;;;;;;3.10;2.80;;;15.00;99.90;;;;;;6168238;23;20408;-82
2022/10/17 00:21:20;;;;;;;3.50;3.20;;;15.00;99.90;;;;;;6168186;23;20451;-82
2022/10/17 00:23:47;;;;;;;8.20;3.63;;;14.90;99.90;;;;;;6168856;23;20414;-82
2022/10/17 00:26:14;;;;;;;3.53;3.17;;;14.90;99.90;;;;;;6168209;23;20418;-82
2022/10/17 00:28:41;;;;;;;5.90;4.20;;;14.80;99.90;;;;;;6168520;23;20909;-82
2022/10/17 00:31:08;;;;;;;4.10;3.70;;;14.80;99.90;;;;;;6168541;23;20421;-82
2022/10/17 00:33:35;;;;;;;3.60;3.30;;;14.80;99.90;;;;;;6168053;23;20497;-82
2022/10/17 00:36:06;;;;;;;3.90;3.60;;;14.70;99.90;;;;;;6168416;23;20410;-82
2022/10/17 00:38:33;;;;;;;4.00;3.70;;;14.70;99.90;;;;;;6168332;23;20395;-82
2022/10/17 00:40:59;;;;;;;3.60;3.40;;;14.70;99.90;;;;;;6168624;23;20447;-81
2022/10/17 00:43:26;;;;;;;3.83;3.50;;;14.60;99.90;;;;;;6168817;23;20414;-82
2022/10/17 00:45:53;;;;;;;3.23;3.00;;;14.60;99.90;;;;;;6168362;23;20408;-82
2022/10/17 00:48:22;;;;;;;3.90;2.90;;;14.60;99.90;;;;;;6167605;23;20419;-82
2022/10/17 00:50:50;;;;;;;3.53;3.23;;;14.60;99.90;;;;;;6168013;23;20411;-82
2022/10/17 00:53:19;;;;;;;3.50;3.30;;;14.60;99.90;;;;;;6168488;23;20933;-82
2022/10/17 00:55:49;;;;;;;3.13;2.93;;;14.50;99.90;;;;;;6168468;23;20487;-81
2022/10/17 00:58:16;;;;;;;3.90;3.50;;;14.40;99.90;;;;;;6167925;23;20406;-81
2022/10/17 01:00:44;;;;;;;3.87;3.60;;;14.40;99.90;;;;;;6167518;23;20534;-82
2022/10/17 01:03:11;;;;;;;4.30;3.63;;;14.30;99.90;;;;;;6174410;23;20434;-82
2022/10/17 01:05:38;;;;;;;3.83;3.53;;;14.20;99.90;;;;;;6166899;23;20417;-81
2022/10/17 01:08:06;;;;;;;4.23;3.83;;;14.20;99.90;;;;;;6166157;23;20409;-82
2022/10/17 01:10:44;;;;;;;4.13;3.73;;;14.20;99.90;;;;;;6167405;23;20421;-81
2022/10/17 01:13:16;;;;;;;3.97;3.67;;;14.20;99.90;;;;;;6166551;23;20431;-81
2022/10/17 01:15:55;;;;;;;4.40;4.00;;;14.20;99.90;;;;;;6164936;23;20399;-82
2022/10/17 01:18:38;;;;;;;3.97;3.63;;;14.20;99.90;;;;;;6164320;23;20395;-82
2022/10/17 01:21:24;;;;;;;4.77;4.40;;;14.10;99.90;;;;;;6165835;23;20431;-82
2022/10/17 01:24:33;;;;;;;4.63;4.20;;;14.10;99.90;;;;;;6165430;23;20401;-82
2022/10/17 01:27:33;;;;;;;5.50;4.10;;;14.10;99.90;;;;;;6165526;23;20395;-82
2022/10/17 01:30:25;;;;;;;4.10;3.80;;;14.10;99.90;;;;;;6165091;23;20416;-81
2022/10/17 01:32:57;;;;;;;4.57;4.17;;;14.00;99.90;;;;;;6139933;23;20440;-82
2022/10/17 01:35:27;;;;;;;4.10;3.70;;;14.00;99.90;;;;;;6164637;23;20395;-81
2022/10/17 01:38:02;;;;;;;5.03;3.83;;;14.00;99.90;;;;;;6164330;23;20415;-82
2022/10/17 01:40:35;;;;;;;3.90;3.00;;;14.00;99.90;;;;;;6163688;23;20401;-82
2022/10/17 01:43:07;;;;;;;3.50;3.13;;;14.00;99.90;;;;;;6163194;23;20430;-81
2022/10/17 01:45:39;;;;;;;4.33;4.00;;;14.00;99.90;;;;;;6163487;23;20482;-81
2022/10/17 01:48:14;;;;;;;3.47;3.10;;;13.90;99.90;;;;;;6163433;23;20813;-81
2022/10/17 01:50:45;;;;;;;3.50;3.20;;;13.90;99.90;;;;;;6164416;23;20391;-82
2022/10/17 01:53:16;;;;;;;3.63;3.33;;;13.90;99.90;;;;;;6163137;23;20435;-81
2022/10/17 01:55:45;;;;;;;3.20;2.87;;;13.80;99.90;;;;;;6163552;23;20401;-82
2022/10/17 01:58:17;;;;;;;3.40;3.20;;;13.70;99.90;;;;;;6170505;23;20414;-82
2022/10/17 02:00:47;;;;;;;5.23;3.60;;;13.70;99.90;;;;;;6165185;23;20430;-82
2022/10/17 02:03:18;;;;;;;4.10;3.70;;;13.70;99.90;;;;;;6165340;23;20421;-82
2022/10/17 02:05:45;;;;;;;4.30;3.90;;;13.50;99.90;;;;;;6164512;23;20394;-82
2022/10/17 02:08:12;;;;;;;5.97;4.20;;;13.50;99.90;;;;;;6164637;23;20748;-82
2022/10/17 02:10:45;;;;;;;3.70;3.43;;;13.50;99.90;;;;;;6164493;23;20527;-82
2022/10/17 02:13:19;;;;;;;3.30;3.03;;;13.40;99.90;;;;;;6164759;23;20437;-82
2022/10/17 02:16:01;;;;;;;12.73;4.30;;;13.50;99.90;;;;;;6165139;23;20387;-81
2022/10/17 02:18:46;;;;;;;4.17;3.90;;;13.50;99.90;;;;;;6163997;23;20450;-82
2022/10/17 02:21:19;;;;;;;4.50;3.70;;;13.50;99.90;;;;;;6161677;23;20460;-81
2022/10/17 02:23:53;;;;;;;3.60;3.30;;;13.50;99.90;;;;;;6161646;23;20395;-81
2022/10/17 02:26:25;;;;;;;6.30;4.20;;;13.50;99.90;;;;;;6164536;23;20494;-83
2022/10/17 02:28:58;;;;;;;5.93;3.90;;;13.50;99.90;;;;;;6164269;23;20542;-83
2022/10/17 02:31:28;;;;;;;4.50;4.10;;;13.50;99.90;;;;;;6162973;23;20435;-82
2022/10/17 02:33:59;;;;;;;3.57;3.27;;;13.50;99.90;;;;;;6163870;23;20840;-82
2022/10/17 02:36:32;;;;;;;4.47;4.13;;;13.50;99.90;;;;;;6163471;23;20379;-82
2022/10/17 02:39:01;;;;;;;3.70;3.40;;;13.50;99.90;;;;;;6164044;23;20405;-83
2022/10/17 02:41:29;;;;;;;4.60;3.47;;;13.40;99.90;;;;;;6164149;23;20541;-82
2022/10/17 02:43:57;;;;;;;7.60;3.80;;;13.30;99.90;;;;;;6163278;23;20414;-83
2022/10/17 02:46:26;;;;;;;4.73;3.93;;;13.30;99.90;;;;;;6164356;23;20474;-81
2022/10/17 02:48:58;;;;;;;3.60;3.30;;;13.30;99.90;;;;;;6164630;23;20422;-82
2022/10/17 02:51:32;;;;;;;4.97;4.03;;;13.30;99.90;;;;;;6170465;23;20427;-82
2022/10/17 02:54:06;;;;;;;4.30;3.40;;;13.30;99.90;;;;;;6169931;23;20396;-83
2022/10/17 02:56:40;;;;;;;3.83;3.53;;;13.30;99.90;;;;;;6167971;23;20510;-83
2022/10/17 02:59:09;;;;;;;4.47;3.90;;;13.30;99.90;;;;;;6166857;23;20391;-83
2022/10/17 03:01:36;;;;;;;4.73;3.93;;;13.20;99.90;;;;;;6167937;23;20446;-83
2022/10/17 03:04:09;;;;;;;4.37;3.97;;;13.30;99.90;;;;;;6168531;23;20418;-83
2022/10/17 03:06:36;;;;;;;3.73;3.47;;;13.20;99.90;;;;;;6167222;23;20398;-83
2022/10/17 03:09:03;;;;;;;8.30;4.07;;;13.10;99.90;;;;;;6167260;23;20465;-83
2022/10/17 03:11:30;;;;;;;3.80;3.50;;;13.10;99.90;;;;;;6167328;23;20422;-83
2022/10/17 03:13:57;;;;;;;3.97;3.77;;;13.10;99.90;;;;;;6167487;23;20421;-83
2022/10/17 03:16:24;;;;;;;4.30;3.93;;;13.10;99.90;;;;;;6166672;23;20887;-82
2022/10/17 03:18:50;;;;;;;3.90;3.60;;;13.10;99.90;;;;;;6165484;23;20410;-83
2022/10/17 03:21:19;;;;;;;6.30;4.20;;;13.20;99.90;;;;;;6165270;23;20450;-83
2022/10/17 03:23:45;;;;;;;3.60;3.30;;;13.20;99.90;;;;;;6165655;23;20406;-83
2022/10/17 03:26:12;;;;;;;4.33;3.93;;;13.20;99.90;;;;;;6166381;23;20411;-83
2022/10/17 03:28:39;;;;;;;3.30;3.10;;;13.20;99.90;;;;;;6165403;23;20418;-83
2022/10/17 03:31:10;;;;;;;3.63;3.33;;;13.20;99.90;;;;;;6166951;23;20418;-83
2022/10/17 03:33:37;;;;;;;3.93;3.50;;;13.10;99.90;;;;;;6167344;23;20410;-83
2022/10/17 03:36:07;;;;;;;7.10;5.60;;;13.10;99.90;;;;;;6168417;23;20414;-83
2022/10/17 03:38:36;;;;;;;5.40;4.53;;;13.10;99.90;;;;;;6167788;23;20449;-83
2022/10/17 03:41:03;;;;;;;8.57;4.70;;;13.10;99.90;;;;;;6168887;23;20417;-83
2022/10/17 03:43:30;;;;;;;3.20;2.90;;;13.10;99.90;;;;;;6168313;23;20410;-83
2022/10/17 03:45:57;;;;;;;3.80;3.50;;;13.10;99.90;;;;;;6172264;23;20410;-82
2022/10/17 03:48:24;;;;;;;5.43;3.77;;;13.10;99.90;;;;;;6170124;23;20417;-83
2022/10/17 03:50:51;;;;;;;4.90;4.57;;;13.00;99.90;;;;;;6168510;23;20406;-83
2022/10/17 03:53:18;;;;;;;4.27;3.87;;;13.00;99.90;;;;;;6168624;23;20744;-83
2022/10/17 03:55:46;;;;;;;7.50;4.60;;;13.00;99.90;;;;;;6168402;23;20406;-82
2022/10/17 03:58:13;;;;;;;4.20;3.80;;;13.00;99.90;;;;;;6168402;23;20420;-83
2022/10/17 04:00:39;;;;;;;4.53;3.30;;;13.00;99.90;;;;;;6168533;23;20416;-82
2022/10/17 04:03:06;;;;;;;4.47;4.07;;;13.00;99.90;;;;;;6168527;23;20449;-82
2022/10/17 04:05:33;;;;;;;4.53;4.00;;;13.00;99.90;;;;;;6168529;23;20413;-82
2022/10/17 04:08:00;;;;;;;5.13;4.70;;;13.00;99.90;;;;;;6166602;23;20905;-83
2022/10/17 04:10:26;;;;;;;5.07;4.60;;;12.90;99.90;;;;;;6166228;23;20408;-83
2022/10/17 04:12:54;;;;;;;4.57;4.17;;;12.90;99.90;;;;;;6166492;23;20489;-82
2022/10/17 04:15:21;;;;;;;4.40;4.00;;;12.90;99.90;;;;;;6166984;23;20406;-83
2022/10/17 04:17:48;;;;;;;5.00;4.60;;;12.90;99.90;;;;;;6166771;23;21029;-83
2022/10/17 04:20:15;;;;;;;7.70;4.93;;;12.90;99.90;;;;;;6167197;23;20420;-83
2022/10/17 04:22:41;;;;;;;6.00;3.73;;;12.80;99.90;;;;;;6167262;23;20446;-82
2022/10/17 04:25:09;;;;;;;4.43;3.87;;;12.80;99.90;;;;;;6167092;23;20409;-83
2022/10/17 04:27:35;;;;;;;5.30;4.83;;;12.90;99.90;;;;;;6167053;23;20793;-83
2022/10/17 04:30:04;;;;;;;4.03;3.67;;;12.80;99.90;;;;;;6166575;23;20421;-82
2022/10/17 04:32:32;;;;;;;3.97;3.67;;;12.80;99.90;;;;;;6167399;23;20434;-83
2022/10/17 04:34:58;;;;;;;5.77;4.13;;;12.80;99.90;;;;;;6166950;23;20413;-83
2022/10/17 04:37:25;;;;;;;8.00;3.43;;;12.80;99.90;;;;;;6166627;23;20413;-83
2022/10/17 04:39:52;;;;;;;3.67;2.83;;;12.80;99.90;;;;;;6168362;23;20423;-82
2022/10/17 04:42:19;;;;;;;3.87;3.57;;;12.80;99.90;;;;;;6171395;23;20513;-82
2022/10/17 04:44:45;;;;;;;4.63;3.50;;;12.80;99.90;;;;;;6166751;23;20450;-82
2022/10/17 04:47:13;;;;;;;3.60;3.37;;;12.70;99.90;;;;;;6165574;23;20432;-83
2022/10/17 04:49:40;;;;;;;3.60;3.00;;;12.80;99.90;;;;;;6165209;23;20409;-83
2022/10/17 04:52:07;;;;;;;4.97;3.87;;;12.80;99.90;;;;;;6165345;23;20803;-83
2022/10/17 04:54:34;;;;;;;4.60;4.00;;;12.80;99.90;;;;;;6166468;23;20407;-83
2022/10/17 04:57:00;;;;;;;5.00;4.50;;;12.80;99.90;;;;;;6167196;23;20406;-82
2022/10/17 04:59:28;;;;;;;5.03;4.60;;;12.80;99.90;;;;;;6166445;23;20517;-83
2022/10/17 05:01:55;;;;;;;3.53;3.20;;;12.80;99.90;;;;;;6166596;23;20485;-83
2022/10/17 05:04:24;;;;;;;3.70;3.40;;;12.80;99.90;;;;;;6166756;23;20410;-83
2022/10/17 05:06:50;;;;;;;5.60;4.53;;;12.80;99.90;;;;;;6167050;23;20421;-82
2022/10/17 05:09:18;;;;;;;4.90;4.50;;;12.80;99.90;;;;;;6163744;23;20525;-83
2022/10/17 05:11:45;;;;;;;5.23;4.63;;;12.80;99.90;;;;;;6153387;23;20414;-85
2022/10/17 05:14:12;;;;;;;4.70;4.10;;;12.80;99.90;;;;;;6154259;23;20433;-86
2022/10/17 05:16:39;;;;;;;4.57;4.27;;;12.80;99.90;;;;;;6154965;23;20410;-86
2022/10/17 05:19:06;;;;;;;4.90;4.50;;;12.90;99.90;;;;;;6154914;23;20411;-85
2022/10/17 05:21:36;;;;;;;4.00;3.70;;;12.90;99.90;;;;;;6183589;23;20425;-86
2022/10/17 05:24:08;;;;;;;5.13;4.80;;;12.90;99.90;;;;;;6184317;23;20918;-86
2022/10/17 05:26:35;;;;;;;5.33;4.87;;;12.90;99.90;;;;;;6184696;23;20405;-86
2022/10/17 05:29:03;;;;;;;6.63;6.03;;;13.00;99.90;;;;;;6184119;23;20504;-86
2022/10/17 05:31:30;;;;;;;7.20;5.07;;;13.00;99.90;;;;;;6184242;23;20432;-86
2022/10/17 05:34:00;;;;;;;5.40;4.87;;;13.00;99.90;;;;;;6184689;23;20424;-86
2022/10/17 05:36:27;;;;;;;5.13;4.73;;;13.00;99.90;;;;;;6184867;23;20428;-85
2022/10/17 05:38:55;;;;;;;5.70;5.13;;;13.10;99.90;;;;;;6185681;23;20408;-84
2022/10/17 05:41:25;;;;;;;5.03;4.63;;;13.10;99.90;;;;;;6185029;23;20434;-84
2022/10/17 05:43:52;;;;;;;6.67;4.13;;;13.10;99.90;;;;;;6185875;23;20441;-84
2022/10/17 05:46:19;;;;;;;7.43;5.50;;;13.20;99.90;;;;;;6185358;23;20512;-84
2022/10/17 05:48:48;;;;;;;3.43;3.13;;;13.20;99.90;;;;;;6185781;23;20422;-84
2022/10/17 05:51:15;;;;;;;5.30;4.90;;;13.20;99.90;;;;;;6185557;23;20437;-84
2022/10/17 05:53:42;;;;;;;4.87;4.47;;;13.30;99.90;;;;;;6185174;23;20440;-84
2022/10/17 05:56:13;;;;;;;4.97;4.57;;;13.30;99.90;;;;;;6184974;23;20409;-84
2022/10/17 05:58:42;;;;;;;4.83;4.43;;;13.30;99.90;;;;;;6184467;23;20880;-83
2022/10/17 06:01:10;;;;;;;5.70;5.20;;;13.30;99.90;;;;;;6183870;23;20765;-84
2022/10/17 06:03:37;;;;;;;5.27;4.90;;;13.30;99.90;;;;;;6184807;23;20441;-84
2022/10/17 06:06:05;;;;;;;5.10;4.70;;;13.30;99.90;;;;;;6186636;23;20505;-84
2022/10/17 06:08:32;;;;;;;10.27;8.57;;;13.40;99.90;;;;;;6183394;23;20770;-84
2022/10/17 06:10:59;;;;;;;14.40;13.20;;;13.40;99.90;;;;;;6183829;23;20441;-84
2022/10/17 06:13:56;;;;;;;9.80;9.00;;;13.40;99.90;;;;;;6183713;23;20419;-85
2022/10/17 06:16:23;;;;;;;7.40;6.90;;;13.50;99.90;;;;;;6183853;23;20412;-85
2022/10/17 06:18:50;;;;;;;7.17;6.47;;;13.50;99.90;;;;;;6183967;23;20412;-85
2022/10/17 06:21:21;;;;;;;12.80;5.50;;;13.50;99.90;;;;;;6184260;23;20433;-86
2022/10/17 06:23:48;;;;;;;8.10;5.80;;;13.60;99.90;;;;;;6183722;23;20443;-86
2022/10/17 06:26:15;;;;;;;8.50;5.80;;;13.60;99.90;;;;;;6184556;23;20416;-85
2022/10/17 06:28:42;;;;;;;8.33;5.40;;;13.60;99.90;;;;;;6184052;23;20410;-86
2022/10/17 06:31:16;;;;;;;6.17;5.10;;;13.60;99.90;;;;;;6183785;23;20429;-87
2022/10/17 06:33:43;;;;;;;9.00;5.00;;;13.70;99.90;;;;;;6184209;23;20655;-87
2022/10/17 06:36:12;;;;;;;8.10;5.00;;;13.60;99.90;;;;;;6184195;23;20417;-87
2022/10/17 06:38:40;;;;;;;8.03;5.73;;;13.50;99.90;;;;;;6183929;23;20437;-86
2022/10/17 06:41:09;;;;;;;6.00;4.97;;;13.50;99.90;;;;;;6183580;23;20460;-87
2022/10/17 06:43:36;;;;;;;9.90;4.73;;;13.60;99.90;;;;;;6184216;23;20527;-86
2022/10/17 06:46:03;;;;;;;5.97;5.13;;;13.50;99.90;;;;;;6184145;23;20914;-86
2022/10/17 06:48:32;;;;;;;5.37;4.40;;;13.50;99.90;;;;;;6183970;23;20419;-86
2022/10/17 06:51:00;;;;;;;5.17;4.57;;;13.50;99.90;;;;;;6183614;23;20437;-88
2022/10/17 06:53:28;;;;;;;5.00;4.50;;;13.60;99.90;;;;;;6184381;23;20465;-87
2022/10/17 06:56:00;;;;;;;5.30;4.67;;;13.60;99.90;;;;;;6193856;23;20449;-85
2022/10/17 06:58:30;;;;;;;6.50;5.40;;;13.70;99.90;;;;;;6186128;23;20430;-83
2022/10/17 07:00:59;;;;;;;10.30;6.93;;;13.70;99.90;;;;;;6187029;23;20765;-84
2022/10/17 07:03:31;;;;;;;8.77;5.90;;;13.80;99.90;;;;;;6188890;23;20516;-84
2022/10/17 07:05:59;;;;;;;10.80;7.20;;;13.80;99.90;;;;;;6190975;23;20416;-84
2022/10/17 07:08:26;;;;;;;6.63;5.90;;;13.90;99.90;;;;;;6192780;23;20410;-84
2022/10/17 07:10:58;;;;;;;11.07;7.00;;;14.00;99.90;;;;;;6188801;23;20446;-87
2022/10/17 07:13:40;;;;;;;7.57;6.60;;;14.10;99.90;;;;;;6186918;23;20394;-87
2022/10/17 07:21:58;;;;;;;6.30;4.77;;;14.40;99.90;;;;;;6093194;23;20468;-83
2022/10/17 07:24:25;;;;;;;11.17;5.17;;;14.50;99.90;;;;;;6097423;23;20430;-85
2022/10/17 07:26:52;;;;;;;6.43;5.10;;;14.60;99.90;;;;;;6095090;23;20432;-85
2022/10/17 07:29:19;;;;;;;8.30;4.60;;;14.70;99.90;;;;;;6096519;23;20420;-84
2022/10/17 07:31:47;;;;;;;4.57;4.17;;;14.90;99.90;;;;;;6096244;23;20425;-85
2022/10/17 07:34:20;;;;;;;3.73;3.43;;;15.00;99.90;;;;;;6097322;23;20442;-86
2022/10/17 07:36:47;;;;;;;5.70;5.20;;;15.20;99.90;;;;;;6096691;23;20420;-85
2022/10/17 07:39:15;;;;;;;6.03;4.10;;;15.30;99.90;;;;;;6096495;23;20436;-85
2022/10/17 07:41:42;;;;;;;4.57;4.17;;;15.50;99.90;;;;;;6096958;23;20726;-86
2022/10/17 07:44:08;;;;;;;5.93;4.57;;;15.60;99.90;;;;;;6097806;23;20445;-85
2022/10/17 07:46:35;;;;;;;8.13;4.40;;;15.80;99.90;;;;;;6097818;23;20408;-85
2022/10/17 07:49:08;;;;;;;5.03;3.60;;;16.00;99.90;;;;;;6096400;23;20416;-86
2022/10/17 07:51:35;;;;;;;6.20;3.63;;;16.10;99.90;;;;;;6096237;23;21093;-85
2022/10/17 07:54:02;;;;;;;3.53;3.23;;;16.30;99.90;;;;;;6097191;23;20410;-86
2022/10/17 07:56:30;;;;;;;4.03;3.67;;;16.40;99.90;;;;;;6096434;23;20425;-85
2022/10/17 07:58:57;;;;;;;2.73;2.53;;;16.50;99.90;;;;;;6109041;23;20745;-86
2022/10/17 08:01:24;;;;;;;5.57;3.07;;;16.60;99.90;;;;;;6097212;23;20447;-85
2022/10/17 08:03:57;;;;;;;4.10;3.10;;;16.80;99.90;;;;;;6096785;23;20533;-86
2022/10/17 08:06:24;;;;;;;3.97;2.77;;;16.90;99.90;;;;;;6096835;23;20402;-85
2022/10/17 08:08:51;;;;;;;4.83;3.00;;;17.10;99.90;;;;;;6096659;23;20499;-86
2022/10/17 08:11:18;;;;;;;5.10;3.40;;;17.20;99.90;;;;;;6074537;23;20438;-85
2022/10/17 08:13:46;;;;;;;3.93;3.13;;;17.40;99.90;;;;;;6106229;23;20471;-86
2022/10/17 08:16:13;;;;;;;5.87;2.90;;;17.50;99.90;;;;;;6103507;23;20426;-84
2022/10/17 08:18:41;;;;;;;3.90;2.70;;;17.70;99.90;;;;;;6107773;23;20421;-84
2022/10/17 08:21:11;;;;;;;2.60;2.40;;;17.80;99.90;;;;;;6119756;23;20436;-86
2022/10/17 08:23:44;;;;;;;6.00;3.40;;;17.90;99.90;;;;;;6125262;23;21117;-85
2022/10/17 08:26:15;;;;;;;2.27;2.03;;;18.00;99.90;;;;;;6126054;23;20407;-86
2022/10/17 08:28:42;;;;;;;2.50;2.30;;;18.00;99.90;;;;;;6125628;23;20403;-85
2022/10/17 08:31:18;;;;;;;2.63;2.47;;;18.10;99.90;;;;;;6125754;23;20754;-85
2022/10/17 08:33:45;;;;;;;4.30;2.97;;;18.20;99.90;;;;;;6125899;23;20398;-85
2022/10/17 08:36:14;;;;;;;3.57;2.20;;;18.30;99.90;;;;;;6125771;23;20414;-85
2022/10/17 08:38:42;;;;;;;3.47;2.63;;;18.40;99.90;;;;;;6123981;23;20446;-86
2022/10/17 08:41:14;;;;;;;5.77;3.20;;;18.50;99.90;;;;;;6124480;23;20439;-87
2022/10/17 08:43:58;;;;;;;1.80;1.60;;;18.60;99.90;;;;;;6123362;23;20438;-85
2022/10/17 08:46:29;;;;;;;2.73;2.50;;;18.80;99.90;;;;;;6129156;23;20423;-84
2022/10/17 08:48:59;;;;;;;2.13;1.93;;;18.90;99.90;;;;;;6129530;23;20727;-86
2022/10/17 08:51:32;;;;;;;2.50;2.30;;;19.00;99.90;;;;;;6130493;23;20446;-84
2022/10/17 08:54:04;;;;;;;1.87;1.77;;;19.10;99.90;;;;;;6141062;23;20440;-85
2022/10/17 08:56:38;;;;;;;2.23;2.10;;;19.30;99.90;;;;;;6132225;23;20427;-84
2022/10/17 08:59:05;;;;;;;2.47;2.27;;;19.40;99.90;;;;;;6132998;23;20380;-86
2022/10/17 09:01:49;;;;;;;2.67;2.43;;;19.50;99.90;;;;;;6127964;23;20439;-82
2022/10/17 09:04:48;;;;;;;4.50;2.67;;;19.70;99.90;;;;;;6129066;23;20388;-86
2022/10/17 09:07:48;;;;;;;3.33;2.00;;;20.00;99.90;;;;;;6079829;23;20478;-86
2022/10/17 09:11:24;;;;;;;4.07;2.00;;;20.10;99.90;;;;;;6043701;23;20431;-88
2022/10/17 09:50:00;;;;;;;2.70;2.03;;;21.70;99.90;;;;;;5796978;24;20419;-87
2022/10/17 10:19:56;;;;;;;2.17;2.07;;;23.00;98.90;;;;;;5840103;24;20415;-86
2022/10/17 10:32:37;;;;;;;2.43;2.23;;;23.60;96.90;;;;;;6018582;23;20488;-86
2022/10/17 10:38:39;;;;;;;;;;;;;;;;;;;;;
2022/10/17 10:50:53;;;;;;;2.03;1.93;;;24.50;94.70;;;;;;6079586;23;20425;-86
2022/10/17 10:54:08;;;;;;;2.80;2.60;;;25.20;93.70;;;;;;6099648;23;20752;-86
2022/10/17 10:56:57;;;;;;;2.67;2.40;;;25.90;91.90;;;;;;6099257;23;20421;-86
2022/10/17 10:59:34;;;;;;;2.03;1.93;;;26.50;91.10;;;;;;6098664;23;20420;-86
2022/10/17 11:02:25;;;;;;;4.33;2.00;;;27.00;90.20;;;;;;6097787;23;20420;-86
2022/10/17 11:05:19;;;;;;;2.00;1.70;;;27.50;88.90;;;;;;6099104;23;20423;-86
2022/10/17 11:07:54;;;;;;;2.13;1.93;;;28.00;84.10;;;;;;6083824;23;20417;-87
2022/10/17 11:10:28;;;;;;;2.23;2.03;;;28.20;83.90;;;;;;6115969;23;20787;-81
2022/10/17 11:13:03;;;;;;;2.23;1.97;;;28.50;80.90;;;;;;6157151;23;20418;-81
2022/10/17 11:15:35;;;;;;;3.07;2.00;;;28.80;79.60;;;;;;6157120;23;20396;-81
2022/10/17 11:18:05;;;;;;;2.50;1.47;;;29.10;76.90;;;;;;6157370;23;20396;-81
2022/10/17 11:20:41;;;;;;;3.30;1.77;;;29.30;74.60;;;;;;6158037;23;20733;-80
2022/10/17 11:23:19;;;;;;;2.23;2.03;;;29.50;74.10;;;;;;6158145;23;20419;-81
2022/10/17 11:25:49;;;;;;;4.63;1.70;;;30.00;74.30;;;;;;6157428;23;20420;-81
2022/10/17 11:28:20;;;;;;;2.10;2.00;;;30.40;70.50;;;;;;6156756;23;20877;-80
2022/10/17 11:30:51;;;;;;;2.67;2.00;;;30.80;70.40;;;;;;6157138;23;20839;-82
2022/10/17 11:33:24;;;;;;;2.00;1.70;;;30.90;64.80;;;;;;6156406;23;20875;-81
2022/10/17 11:35:54;;;;;;;2.90;2.00;;;31.00;64.30;;;;;;6156970;23;20387;-80
2022/10/17 11:38:27;;;;;;;4.53;1.77;;;30.90;63.70;;;;;;6156943;23;20411;-80
2022/10/17 11:40:58;;;;;;;4.30;2.17;;;31.10;61.80;;;;;;6156585;23;20428;-82
2022/10/17 11:43:29;;;;;;;2.63;1.97;;;31.30;60.80;;;;;;6157039;23;20406;-81
2022/10/17 11:46:01;;;;;;;1.93;1.83;;;31.30;60.10;;;;;;6157422;23;20396;-82
2022/10/17 11:48:32;;;;;;;4.10;1.90;;;31.30;58.90;;;;;;6156753;23;20403;-81
2022/10/17 11:51:08;;;;;;;3.03;2.50;;;31.30;60.50;;;;;;6157619;23;20435;-81
2022/10/17 11:53:49;;;;;;;1.50;1.40;;;31.20;59.60;;;;;;6159044;23;20430;-81
2022/10/17 11:56:21;;;;;;;3.00;1.80;;;31.30;60.30;;;;;;6158765;23;20397;-81
2022/10/17 11:58:56;;;;;;;1.90;1.80;;;31.60;60.10;;;;;;6158451;23;20392;-80
2022/10/17 12:01:31;;;;;;;2.33;1.87;;;31.90;58.70;;;;;;6158998;23;20440;-81
2022/10/17 12:04:16;;;;;;;2.03;1.73;;;31.90;57.00;;;;;;6158234;23;20397;-81
2022/10/17 12:06:52;;;;;;;2.47;1.93;;;31.80;56.50;;;;;;6158954;23;20392;-81
2022/10/17 12:09:27;;;;;;;2.97;2.10;;;31.70;57.70;;;;;;6158536;23;20398;-81
2022/10/17 12:11:56;;;;;;;2.73;1.87;;;31.60;56.80;;;;;;6158066;23;20448;-81
2022/10/17 12:14:42;;;;;;;1.80;1.70;;;31.60;56.00;;;;;;6158099;23;20447;-81
2022/10/17 12:17:31;;;;;;;1.60;1.50;;;31.10;55.80;;;;;;6158795;23;20396;-81
2022/10/17 12:20:24;;;;;;;2.17;1.97;;;30.50;57.00;;;;;;6149979;23;20450;-81
2022/10/17 12:22:52;;;;;;;2.10;1.97;;;30.50;58.20;;;;;;6158625;23;20409;-81
2022/10/17 12:25:21;;;;;;;1.67;1.30;;;30.80;57.90;;;;;;6158654;23;20427;-81
2022/10/17 12:27:49;;;;;;;4.37;2.50;;;31.20;57.50;;;;;;6158080;23;20405;-81
2022/10/17 12:30:23;;;;;;;2.80;2.47;;;31.40;56.10;;;;;;6158078;23;20432;-81
2022/10/17 12:32:56;;;;;;;3.40;2.00;;;31.50;57.40;;;;;;6158478;23;20427;-82
2022/10/17 12:35:26;;;;;;;1.90;1.80;;;31.60;57.30;;;;;;6158597;23;20431;-81
2022/10/17 12:38:15;;;;;;;1.90;1.80;;;31.60;56.70;;;;;;6157809;23;20496;-80
2022/10/17 12:40:49;;;;;;;1.93;1.77;;;31.60;56.10;;;;;;6158372;23;20427;-82
2022/10/17 12:43:49;;;;;;;5.80;3.00;;;32.00;56.60;;;;;;6158564;23;20393;-81
2022/10/17 12:46:43;;;;;;;2.03;1.93;;;32.50;56.50;;;;;;6135427;23;20416;-81
2022/10/17 12:49:36;;;;;;;2.20;1.83;;;33.00;55.60;;;;;;6157524;23;20719;-81
2022/10/17 12:52:47;;;;;;;2.13;1.90;;;33.00;55.20;;;;;;6157370;23;20413;-80
2022/10/17 12:55:16;;;;;;;3.27;1.60;;;33.00;54.00;;;;;;6157092;23;20456;-81
2022/10/17 12:58:00;;;;;;;1.80;1.70;;;32.80;53.90;;;;;;6157700;23;20433;-81
2022/10/17 13:00:35;;;;;;;2.30;2.10;;;33.10;53.50;;;;;;6158343;23;20436;-80
2022/10/17 13:03:10;;;;;;;2.10;1.77;;;33.30;54.30;;;;;;6157868;23;20406;-81
2022/10/17 13:05:40;;;;;;;2.30;2.10;;;33.30;52.80;;;;;;6158263;23;20391;-80
2022/10/17 13:08:15;;;;;;;1.83;1.73;;;33.30;52.50;;;;;;6157887;23;20413;-81
2022/10/17 13:10:44;;;;;;;3.83;2.30;;;33.30;52.30;;;;;;6158135;23;20447;-82
2022/10/17 13:13:16;;;;;;;1.70;1.50;;;33.70;52.80;;;;;;6157624;23;20413;-81
2022/10/17 13:15:47;;;;;;;3.90;1.97;;;33.90;50.20;;;;;;6157745;23;20428;-81
2022/10/17 13:18:20;;;;;;;1.93;1.70;;;33.40;48.50;;;;;;6158003;23;20747;-82
2022/10/17 13:20:59;;;;;;;3.30;1.63;;;32.70;49.20;;;;;;6157484;23;20431;-81
2022/10/17 13:23:29;;;;;;;1.97;1.47;;;32.30;49.40;;;;;;6158521;23;20393;-82
2022/10/17 13:26:03;;;;;;;2.23;1.57;;;31.40;50.30;;;;;;6157955;23;20416;-82
2022/10/17 13:28:30;;;;;;;4.97;1.60;;;31.40;51.90;;;;;;6157559;23;20427;-82
2022/10/17 13:30:57;;;;;;;1.93;1.50;;;31.70;51.00;;;;;;6157766;23;20452;-81
2022/10/17 13:33:34;;;;;;;3.40;1.57;;;32.00;51.60;;;;;;6157984;23;20730;-81
2022/10/17 13:36:04;;;;;;;2.70;1.60;;;32.30;51.30;;;;;;6157688;23;20431;-81
2022/10/17 13:38:33;;;;;;;2.13;1.90;;;32.50;50.80;;;;;;6157503;23;20412;-81
2022/10/17 13:41:01;;;;;;;2.00;1.80;;;32.80;50.20;;;;;;6158014;23;20426;-82
2022/10/17 13:43:28;;;;;;;2.03;1.70;;;32.80;50.00;;;;;;6157932;23;20442;-81
2022/10/17 13:46:00;;;;;;;2.13;1.97;;;32.60;50.00;;;;;;6157772;23;20413;-81
2022/10/17 13:48:30;;;;;;;8.80;3.97;;;32.00;55.80;;;;;;6157736;23;20394;-81
2022/10/17 13:51:01;;;;;;;2.87;2.63;;;31.50;58.10;;;;;;6157531;23;20431;-81
2022/10/17 13:53:31;;;;;;;2.80;2.60;;;31.20;59.60;;;;;;6157491;23;20893;-81
2022/10/17 13:56:00;;;;;;;3.80;2.70;;;31.10;60.00;;;;;;6157840;23;20448;-81
2022/10/17 13:58:33;;;;;;;3.20;2.30;;;31.10;60.70;;;;;;6157653;23;20411;-81
2022/10/17 14:01:00;;;;;;;3.50;3.20;;;31.20;60.00;;;;;;6157393;23;20434;-81
2022/10/17 14:03:27;;;;;;;4.57;2.77;;;31.10;60.10;;;;;;6157539;23;20423;-81
2022/10/17 14:06:08;;;;;;;3.27;2.60;;;30.60;60.10;;;;;;6157472;23;20431;-82
2022/10/17 14:08:36;;;;;;;2.83;2.60;;;30.50;61.70;;;;;;6157135;23;20455;-81
2022/10/17 14:11:12;;;;;;;3.07;2.57;;;30.60;61.30;;;;;;6163057;23;20448;-79
2022/10/17 14:13:40;;;;;;;5.20;2.60;;;30.80;61.20;;;;;;6162841;23;20930;-80
2022/10/17 14:16:09;;;;;;;3.50;3.20;;;30.90;60.20;;;;;;6158121;23;20476;-81
2022/10/17 14:18:37;;;;;;;2.33;2.13;;;31.10;60.30;;;;;;6157668;23;20418;-81
2022/10/17 14:21:06;;;;;;;3.83;2.30;;;31.00;58.80;;;;;;6156990;23;20431;-81
2022/10/17 14:23:36;;;;;;;4.80;2.30;;;30.40;58.70;;;;;;6157389;23;20410;-81
2022/10/17 14:26:09;;;;;;;5.20;3.07;;;30.50;59.60;;;;;;6157105;23;20411;-82
2022/10/17 14:28:37;;;;;;;2.40;2.20;;;30.30;60.60;;;;;;6157415;23;20461;-81
2022/10/17 14:31:24;;;;;;;7.43;2.77;;;29.90;60.90;;;;;;6157487;23;20435;-81
2022/10/17 14:33:52;;;;;;;3.40;2.70;;;29.80;61.50;;;;;;6157457;23;20390;-81
2022/10/17 14:36:29;;;;;;;2.70;2.50;;;29.60;61.40;;;;;;6157430;23;20509;-82
2022/10/17 14:38:56;;;;;;;2.20;2.10;;;29.20;62.70;;;;;;6157858;23;20404;-81
2022/10/17 14:41:25;;;;;;;3.30;2.50;;;29.40;63.90;;;;;;6157339;23;20768;-82
2022/10/17 14:43:58;;;;;;;5.00;2.60;;;29.30;63.50;;;;;;6157709;23;20417;-81